createdAt,value
2023-02-06T00:01:23.600Z,7.68
2023-02-06T00:03:50.854Z,7.45
2023-02-06T00:06:18.452Z,8.43
2023-02-06T00:08:45.863Z,7.63
2023-02-06T00:11:16.921Z,8.38
2023-02-06T00:13:45.583Z,6.25
2023-02-06T00:16:21.620Z,9.68
2023-02-06T00:18:49.746Z,7.25
2023-02-06T00:21:22.145Z,7.80
2023-02-06T00:23:50.664Z,8.70
2023-02-06T00:26:18.335Z,8.07
2023-02-06T00:28:46.299Z,8.90
2023-02-06T00:31:14.023Z,7.50
2023-02-06T00:33:42.286Z,7.88
2023-02-06T00:36:10.141Z,8.30
2023-02-06T00:38:38.467Z,9.52
2023-02-06T00:41:05.866Z,7.30
2023-02-06T00:43:33.385Z,8.88
2023-02-06T00:46:00.607Z,7.38
2023-02-06T00:48:27.936Z,9.23
2023-02-06T00:50:55.923Z,9.02
2023-02-06T00:53:23.544Z,11.10
2023-02-06T00:55:50.734Z,7.43
2023-02-06T00:58:17.914Z,7.47
2023-02-06T01:00:45.606Z,8.90
2023-02-06T01:03:12.952Z,8.90
2023-02-06T01:05:40.201Z,7.93
2023-02-06T01:08:07.480Z,10.38
2023-02-06T01:10:34.683Z,8.77
2023-02-06T01:13:01.891Z,7.55
2023-02-06T01:15:29.372Z,9.13
2023-02-06T01:17:56.526Z,6.93
2023-02-06T01:20:24.061Z,9.20
2023-02-06T01:22:51.779Z,8.00
2023-02-06T01:25:19.169Z,7.57
2023-02-06T01:27:46.395Z,5.72
2023-02-06T01:30:14.046Z,8.60
2023-02-06T01:32:42.323Z,8.35
2023-02-06T01:35:10.908Z,8.38
2023-02-06T01:37:38.699Z,9.68
2023-02-06T01:40:09.712Z,6.20
2023-02-06T01:42:38.274Z,7.15
2023-02-06T01:45:23.887Z,6.88
2023-02-06T01:47:57.695Z,6.38
2023-02-06T01:50:25.168Z,6.72
2023-02-06T01:52:52.603Z,6.85
2023-02-06T01:55:19.937Z,7.63
2023-02-06T01:57:47.260Z,4.43
2023-02-06T02:00:14.775Z,6.90
2023-02-06T02:02:45.612Z,7.47
2023-02-06T02:05:13.610Z,7.10
2023-02-06T02:08:06.539Z,8.32
2023-02-06T02:10:34.276Z,7.03
2023-02-06T02:13:01.472Z,7.35
2023-02-06T02:15:59.950Z,9.10
2023-02-06T02:19:04.197Z,7.45
2023-02-06T02:22:09.895Z,8.30
2023-02-06T02:24:48.924Z,7.55
2023-02-06T02:27:27.757Z,8.80
2023-02-06T02:30:32.333Z,8.10
2023-02-06T02:33:30.015Z,7.35
2023-02-06T02:36:30.591Z,10.20
2023-02-06T02:39:09.844Z,7.82
2023-02-06T02:41:45.445Z,7.50
2023-02-06T02:44:21.830Z,6.72
2023-02-06T02:46:52.288Z,9.70
2023-02-06T02:49:24.238Z,9.20
2023-02-06T02:51:52.280Z,8.23
2023-02-06T02:54:20.173Z,4.82
2023-02-06T02:56:47.660Z,7.30
2023-02-06T02:59:29.082Z,7.13
2023-02-06T03:02:10.198Z,8.15
2023-02-06T03:04:49.334Z,9.05
2023-02-06T03:07:16.470Z,6.90
2023-02-06T03:09:49.413Z,7.60
2023-02-06T03:12:48.857Z,6.15
2023-02-06T03:15:56.376Z,6.65
2023-02-06T03:18:41.518Z,7.57
2023-02-06T03:21:13.904Z,6.93
2023-02-06T03:23:43.967Z,7.38
2023-02-06T03:26:16.224Z,7.22
2023-02-06T03:28:47.975Z,7.88
2023-02-06T03:31:20.919Z,7.05
2023-02-06T03:33:55.321Z,7.57
2023-02-06T03:36:22.557Z,8.35
2023-02-06T03:38:52.403Z,7.22
2023-02-06T03:41:24.322Z,6.50
2023-02-06T03:43:52.518Z,8.55
2023-02-06T03:46:21.297Z,6.70
2023-02-06T03:48:52.272Z,8.23
2023-02-06T03:51:25.026Z,7.13
2023-02-06T03:53:56.432Z,6.75
2023-02-06T03:56:43.662Z,7.75
2023-02-06T03:59:11.439Z,7.22
2023-02-06T04:01:45.969Z,8.20
2023-02-06T04:04:16.375Z,6.63
2023-02-06T04:06:44.433Z,7.65
2023-02-06T04:09:12.120Z,6.40
2023-02-06T04:11:39.313Z,8.10
2023-02-06T04:14:06.407Z,7.78
2023-02-06T04:16:33.644Z,7.60
2023-02-06T04:19:00.934Z,9.15
2023-02-06T04:21:28.085Z,9.43
2023-02-06T04:23:55.363Z,7.97
2023-02-06T04:26:22.696Z,6.35
2023-02-06T04:28:49.879Z,10.25
2023-02-06T04:31:17.305Z,7.32
2023-02-06T04:33:44.506Z,8.55
2023-02-06T04:36:11.698Z,8.90
2023-02-06T04:38:39.081Z,4.95
2023-02-06T04:41:07.613Z,7.28
2023-02-06T04:43:35.081Z,7.38
2023-02-06T04:46:02.381Z,7.53
2023-02-06T04:48:29.592Z,9.30
2023-02-06T04:50:56.796Z,7.32
2023-02-06T04:53:23.992Z,9.65
2023-02-06T04:55:51.153Z,6.88
2023-02-06T04:58:18.464Z,8.35
2023-02-06T05:00:45.755Z,8.07
2023-02-06T05:03:12.946Z,8.57
2023-02-06T05:05:40.175Z,7.57
2023-02-06T05:08:07.307Z,7.40
2023-02-06T05:10:34.589Z,9.95
2023-02-06T05:13:01.796Z,6.35
2023-02-06T05:15:28.941Z,7.35
2023-02-06T05:17:56.153Z,9.45
2023-02-06T05:20:23.578Z,8.48
2023-02-06T05:22:50.757Z,9.02
2023-02-06T05:25:17.988Z,8.23
2023-02-06T05:27:45.192Z,10.57
2023-02-06T05:30:14.271Z,8.57
2023-02-06T05:32:41.630Z,4.13
2023-02-06T05:35:09.004Z,7.90
2023-02-06T05:37:38.659Z,7.25
2023-02-06T05:40:07.172Z,7.93
2023-02-06T05:42:34.486Z,7.97
2023-02-06T05:45:01.740Z,9.32
2023-02-06T05:47:28.968Z,7.25
2023-02-06T05:49:56.246Z,8.00
2023-02-06T05:52:23.415Z,7.72
2023-02-06T05:54:50.609Z,9.30
2023-02-06T05:57:17.840Z,8.25
2023-02-06T05:59:45.012Z,7.88
2023-02-06T06:02:12.662Z,7.25
2023-02-06T06:04:39.883Z,7.45
2023-02-06T06:07:07.543Z,5.47
2023-02-06T06:09:35.031Z,8.70
2023-02-06T06:12:02.176Z,9.15
2023-02-06T06:14:29.792Z,8.10
2023-02-06T06:16:57.042Z,9.52
2023-02-06T06:19:24.240Z,7.57
2023-02-06T06:21:51.803Z,9.52
2023-02-06T06:24:19.060Z,7.68
2023-02-06T06:26:46.233Z,6.10
2023-02-06T06:29:13.484Z,9.30
2023-02-06T06:31:40.714Z,6.30
2023-02-06T06:34:07.990Z,6.90
2023-02-06T06:36:35.312Z,8.88
2023-02-06T06:39:02.602Z,9.70
2023-02-06T06:41:29.765Z,7.50
2023-02-06T06:43:58.595Z,7.55
2023-02-06T06:46:26.942Z,8.73
2023-02-06T06:48:54.218Z,7.72
2023-02-06T06:51:21.833Z,8.52
2023-02-06T06:53:48.996Z,6.47
2023-02-06T06:56:16.261Z,8.30
2023-02-06T06:58:43.540Z,5.68
2023-02-06T07:01:11.069Z,8.02
2023-02-06T07:03:38.474Z,11.18
2023-02-06T07:06:06.121Z,7.72
2023-02-06T07:08:33.368Z,9.07
2023-02-06T07:11:00.621Z,7.18
2023-02-06T07:13:27.825Z,5.45
2023-02-06T07:15:55.032Z,8.05
2023-02-06T07:18:22.520Z,7.72
2023-02-06T07:20:51.685Z,8.35
2023-02-06T07:23:18.963Z,7.68
2023-02-06T07:25:46.450Z,5.20
2023-02-06T07:28:13.668Z,6.03
2023-02-06T07:30:40.998Z,7.70
2023-02-06T07:33:08.575Z,9.55
2023-02-06T07:35:36.056Z,7.93
2023-02-06T07:38:03.495Z,7.07
2023-02-06T07:40:44.148Z,10.70
2023-02-06T07:43:13.819Z,6.88
2023-02-06T07:45:41.036Z,6.97
2023-02-06T07:48:08.463Z,6.47
2023-02-06T07:50:36.246Z,8.05
2023-02-06T07:53:03.510Z,8.30
2023-02-06T07:55:30.859Z,7.13
2023-02-06T07:57:58.133Z,8.93
2023-02-06T08:00:25.439Z,6.18
2023-02-06T08:02:52.711Z,7.85
2023-02-06T08:05:19.912Z,7.93
2023-02-06T08:07:47.088Z,8.20
2023-02-06T08:10:14.230Z,7.20
2023-02-06T08:12:41.335Z,8.15
2023-02-06T08:15:09.180Z,8.23
2023-02-06T08:17:36.448Z,8.25
2023-02-06T08:20:03.757Z,7.30
2023-02-06T08:22:30.978Z,7.07
2023-02-06T08:24:58.151Z,7.82
2023-02-06T08:27:25.314Z,8.20
2023-02-06T08:29:52.554Z,7.20
2023-02-06T08:32:19.802Z,8.80
2023-02-06T08:34:46.934Z,6.53
2023-02-06T08:37:14.349Z,5.18
2023-02-06T08:39:41.525Z,7.05
2023-02-06T08:42:08.628Z,5.65
2023-02-06T08:44:35.942Z,6.47
2023-02-06T08:47:10.134Z,6.65
2023-02-06T08:49:37.937Z,6.18
2023-02-06T08:52:06.094Z,7.40
2023-02-06T08:54:36.013Z,5.30
2023-02-06T08:57:04.198Z,8.35
2023-02-06T08:59:31.587Z,6.82
2023-02-06T09:01:58.779Z,8.10
2023-02-06T09:04:29.779Z,7.78
2023-02-06T09:06:56.935Z,7.05
2023-02-06T09:09:24.196Z,8.07
2023-02-06T09:11:51.405Z,9.25
2023-02-06T09:14:18.988Z,6.57
2023-02-06T09:16:46.177Z,8.95
2023-02-06T09:19:13.598Z,7.32
2023-02-06T09:21:40.899Z,6.88
2023-02-06T09:24:09.452Z,5.85
2023-02-06T09:26:53.451Z,10.32
2023-02-06T09:29:24.862Z,9.85
2023-02-06T09:31:52.088Z,10.13
2023-02-06T09:34:19.250Z,9.60
2023-02-06T09:36:46.738Z,10.68
2023-02-06T09:39:13.987Z,9.65
2023-02-06T09:41:54.100Z,7.60
2023-02-06T09:44:42.122Z,7.43
2023-02-06T09:47:22.817Z,6.47
2023-02-06T09:52:51.785Z,6.30
2023-02-06T09:55:38.922Z,6.88
2023-02-06T09:58:50.925Z,7.13
2023-02-06T10:01:41.677Z,5.53
2023-02-06T10:04:33.611Z,7.18
2023-02-06T10:07:06.648Z,5.10
2023-02-06T10:10:00.995Z,7.82
2023-02-06T10:12:37.821Z,5.80
2023-02-06T10:15:24.694Z,7.40
2023-02-06T10:18:04.897Z,8.00
2023-02-06T10:20:34.166Z,8.02
2023-02-06T10:23:19.304Z,9.07
2023-02-06T10:26:00.092Z,4.45
2023-02-06T10:28:30.138Z,6.05
2023-02-06T10:31:50.686Z,11.73
2023-02-06T10:34:43.880Z,8.18
2023-02-06T10:37:11.284Z,8.32
2023-02-06T10:39:59.738Z,6.05
2023-02-06T10:42:48.104Z,7.95
2023-02-06T10:45:20.219Z,4.93
2023-02-06T10:47:55.446Z,9.15
2023-02-06T10:50:32.487Z,8.50
2023-02-06T10:53:11.809Z,5.53
2023-02-06T10:56:18.517Z,5.18
2023-02-06T10:58:57.746Z,5.22
2023-02-06T11:01:27.121Z,10.07
2023-02-06T11:04:15.272Z,7.45
2023-02-06T11:06:43.321Z,9.63
2023-02-06T11:09:11.014Z,8.38
2023-02-06T11:11:48.182Z,10.55
2023-02-06T11:14:27.437Z,10.85
2023-02-06T11:16:54.813Z,7.07
2023-02-06T11:19:27.631Z,5.38
2023-02-06T11:22:09.075Z,8.73
2023-02-06T11:24:37.366Z,8.88
2023-02-06T11:27:20.939Z,7.15
2023-02-06T11:29:52.095Z,5.65
2023-02-06T11:32:41.330Z,8.18
2023-02-06T11:35:21.077Z,6.60
2023-02-06T11:37:55.608Z,9.40
2023-02-06T11:40:26.691Z,9.55
2023-02-06T11:43:08.414Z,5.85
2023-02-06T11:45:35.787Z,6.88
2023-02-06T11:48:03.254Z,7.68
2023-02-06T11:50:36.622Z,7.72
2023-02-06T11:53:15.179Z,5.95
2023-02-06T11:55:43.237Z,5.53
2023-02-06T11:58:13.338Z,4.97
2023-02-06T12:01:02.435Z,8.85
2023-02-06T12:03:35.924Z,6.07
2023-02-06T12:06:16.564Z,6.90
2023-02-06T12:11:18.025Z,7.95
2023-02-06T12:13:50.666Z,6.30
2023-02-06T12:16:18.840Z,6.55
2023-02-06T12:18:51.166Z,5.88
2023-02-06T12:21:43.372Z,8.02
2023-02-06T12:24:24.775Z,8.38
2023-02-06T12:26:53.927Z,5.85
2023-02-06T12:29:26.354Z,6.60
2023-02-06T12:32:06.689Z,9.07
2023-02-06T12:34:53.541Z,5.22
2023-02-06T12:37:26.456Z,6.22
2023-02-06T12:39:53.891Z,8.63
2023-02-06T12:42:39.804Z,8.60
2023-02-06T12:45:37.334Z,7.15
2023-02-06T12:48:14.679Z,7.28
2023-02-06T12:51:14.884Z,7.90
2023-02-06T12:53:59.219Z,11.85
2023-02-06T12:56:47.005Z,8.35
2023-02-06T12:59:32.097Z,6.50
2023-02-06T13:02:16.984Z,8.88
2023-02-06T13:04:47.152Z,9.32
2023-02-06T13:07:19.641Z,6.22
2023-02-06T13:10:06.225Z,7.03
2023-02-06T13:12:34.795Z,7.57
2023-02-06T13:15:21.361Z,11.18
2023-02-06T13:17:50.716Z,10.25
2023-02-06T13:20:21.269Z,5.60
2023-02-06T13:25:30.288Z,5.60
2023-02-06T13:28:01.360Z,7.57
2023-02-06T13:30:31.764Z,5.43
2023-02-06T13:33:23.184Z,10.35
2023-02-06T13:35:57.973Z,8.07
2023-02-06T13:38:25.113Z,4.90
2023-02-06T13:41:16.997Z,6.88
2023-02-06T13:44:06.743Z,8.38
2023-02-06T13:46:52.536Z,8.17
2023-02-06T13:49:40.975Z,9.65
2023-02-06T13:52:37.203Z,5.88
2023-02-06T13:55:43.299Z,7.82
2023-02-06T13:58:22.011Z,3.30
2023-02-06T14:00:51.675Z,7.15
2023-02-06T14:03:26.675Z,6.73
2023-02-06T14:06:08.613Z,5.65
2023-02-06T14:09:12.812Z,3.90
2023-02-06T14:12:09.980Z,7.53
2023-02-06T14:14:44.093Z,7.43
2023-02-06T14:18:13.650Z,6.95
2023-02-06T14:20:53.063Z,7.57
2023-02-06T14:23:55.249Z,8.40
2023-02-06T14:26:47.139Z,5.78
2023-02-06T14:29:30.612Z,2.70
2023-02-06T14:32:09.379Z,7.10
2023-02-06T14:35:13.856Z,6.47
2023-02-06T14:38:05.858Z,7.55
2023-02-06T14:40:42.727Z,8.15
2023-02-06T14:43:19.800Z,6.40
2023-02-06T14:46:08.869Z,6.32
2023-02-06T14:48:45.520Z,7.78
2023-02-06T14:51:24.484Z,4.60
2023-02-06T14:53:57.521Z,6.65
2023-02-06T14:56:28.217Z,6.68
2023-02-06T14:58:55.451Z,8.70
2023-02-06T15:01:27.885Z,7.13
2023-02-06T15:04:17.736Z,7.30
2023-02-06T15:06:57.709Z,6.85
2023-02-06T15:09:39.497Z,6.03
2023-02-06T15:12:29.240Z,5.43
2023-02-06T15:15:04.734Z,8.87
2023-02-06T15:17:34.180Z,7.93
2023-02-06T15:20:21.633Z,6.88
2023-02-06T15:22:48.983Z,5.90
2023-02-06T15:25:46.254Z,8.13
2023-02-06T15:28:20.208Z,4.70
2023-02-06T15:30:52.783Z,7.78
2023-02-06T15:33:24.565Z,6.80
2023-02-06T15:35:54.414Z,7.68
2023-02-06T15:38:24.591Z,6.40
2023-02-06T15:40:56.133Z,5.53
2023-02-06T15:43:25.700Z,7.40
2023-02-06T15:45:56.874Z,7.03
2023-02-06T15:48:28.864Z,5.07
2023-02-06T15:51:08.206Z,6.50
2023-02-06T15:53:40.299Z,7.78
2023-02-06T15:56:18.407Z,8.60
2023-02-06T15:58:46.939Z,9.18
2023-02-06T16:01:19.148Z,7.57
2023-02-06T16:03:50.133Z,5.85
2023-02-06T16:06:18.359Z,5.57
2023-02-06T16:08:51.557Z,6.50
2023-02-06T16:11:37.836Z,4.75
2023-02-06T16:14:05.647Z,4.38
2023-02-06T16:16:33.228Z,3.30
2023-02-06T16:19:00.348Z,4.28
2023-02-06T16:21:30.984Z,3.42
2023-02-06T16:26:32.222Z,3.33
2023-02-06T16:29:11.034Z,6.93
2023-02-06T16:31:41.504Z,4.03
2023-02-06T16:34:41.865Z,5.72
2023-02-06T16:37:17.845Z,3.67
2023-02-06T16:39:46.036Z,5.63
2023-02-06T16:42:21.992Z,4.88
2023-02-06T16:44:52.586Z,3.83
2023-02-06T16:49:48.503Z,4.43
2023-02-06T16:52:32.050Z,5.13
2023-02-06T16:55:01.893Z,3.03
2023-02-06T16:57:41.931Z,3.92
2023-02-06T17:00:19.768Z,5.05
2023-02-06T17:02:48.266Z,7.43
2023-02-06T17:05:16.160Z,4.95
2023-02-06T17:07:43.508Z,4.38
2023-02-06T17:10:13.686Z,5.88
2023-02-06T17:12:41.423Z,3.03
2023-02-06T17:15:10.343Z,3.95
2023-02-06T17:17:37.607Z,3.92
2023-02-06T17:20:05.627Z,1.50
2023-02-06T17:22:33.031Z,2.70
2023-02-06T17:25:00.218Z,3.05
2023-02-06T17:27:27.506Z,3.58
2023-02-06T17:29:54.734Z,5.18
2023-02-06T17:32:23.070Z,4.03
2023-02-06T17:34:51.697Z,2.30
2023-02-06T17:37:21.842Z,6.80
2023-02-06T17:39:53.236Z,3.63
2023-02-06T17:42:23.169Z,3.72
2023-02-06T17:44:50.728Z,3.85
2023-02-06T17:47:17.936Z,3.65
2023-02-06T17:49:47.489Z,3.38
2023-02-06T17:52:15.026Z,5.70
2023-02-06T17:54:42.556Z,3.53
2023-02-06T17:57:10.058Z,6.85
2023-02-06T17:59:37.262Z,6.07
2023-02-06T18:02:04.524Z,7.70
2023-02-06T18:04:32.118Z,7.38
2023-02-06T18:06:59.369Z,7.45
2023-02-06T18:09:26.524Z,7.82
2023-02-06T18:11:53.703Z,5.10
2023-02-06T18:14:21.819Z,5.80
2023-02-06T18:16:49.051Z,4.20
2023-02-06T18:19:17.588Z,4.13
2023-02-06T18:21:44.842Z,9.05
2023-02-06T18:24:12.079Z,5.10
2023-02-06T18:26:39.257Z,4.97
2023-02-06T18:29:06.851Z,5.95
2023-02-06T18:31:35.944Z,3.03
2023-02-06T18:34:07.955Z,6.10
2023-02-06T18:36:36.931Z,2.03
2023-02-06T18:39:05.375Z,3.70
2023-02-06T18:41:50.931Z,5.20
2023-02-06T18:44:18.187Z,5.63
2023-02-06T18:46:45.319Z,7.57
2023-02-06T18:49:12.600Z,4.32
2023-02-06T18:51:39.738Z,3.47
2023-02-06T18:54:08.130Z,4.28
2023-02-06T18:56:35.491Z,6.70
2023-02-06T18:59:04.171Z,5.43
2023-02-06T19:01:32.372Z,3.80
2023-02-06T19:03:59.882Z,3.22
2023-02-06T19:06:35.748Z,4.88
2023-02-06T19:09:08.550Z,4.10
2023-02-06T19:11:37.106Z,6.40
2023-02-06T19:14:05.361Z,4.95
2023-02-06T19:16:33.018Z,5.10
2023-02-06T19:19:00.302Z,6.18
2023-02-06T19:21:28.466Z,7.65
2023-02-06T19:23:58.527Z,4.70
2023-02-06T19:26:27.048Z,5.05
2023-02-06T19:28:54.794Z,3.65
2023-02-06T19:31:25.498Z,2.60
2023-02-06T19:33:55.998Z,6.88
2023-02-06T19:36:24.762Z,5.45
2023-02-06T19:38:56.034Z,5.38
2023-02-06T19:41:25.550Z,3.60
2023-02-06T19:43:54.953Z,3.53
2023-02-06T19:46:25.288Z,4.57
2023-02-06T19:48:53.428Z,8.85
2023-02-06T19:51:23.593Z,3.05
2023-02-06T19:53:52.239Z,6.30
2023-02-06T19:56:23.216Z,5.90
2023-02-06T19:58:59.015Z,4.18
2023-02-06T20:01:29.266Z,3.05
2023-02-06T20:03:57.856Z,0.80
2023-02-06T20:06:25.142Z,4.82
2023-02-06T20:08:52.519Z,3.60
2023-02-06T20:11:22.131Z,6.15
2023-02-06T20:13:52.317Z,5.85
2023-02-06T20:16:28.145Z,3.03
2023-02-06T20:18:56.585Z,2.38
2023-02-06T20:21:31.377Z,5.47
2023-02-06T20:24:01.233Z,5.40
2023-02-06T20:26:31.503Z,3.70
2023-02-06T20:28:59.199Z,4.03
2023-02-06T20:31:27.817Z,3.33
2023-02-06T20:33:55.412Z,3.10
2023-02-06T20:36:26.352Z,6.15
2023-02-06T20:38:58.836Z,7.00
2023-02-06T20:41:29.676Z,3.75
2023-02-06T20:44:01.468Z,2.90
2023-02-06T20:46:30.677Z,4.13
2023-02-06T20:49:00.133Z,4.55
2023-02-06T20:51:28.598Z,3.55
2023-02-06T20:53:56.351Z,5.63
2023-02-06T20:56:25.966Z,2.30
2023-02-06T20:58:53.847Z,3.27
2023-02-06T21:01:24.286Z,4.95
2023-02-06T21:03:54.812Z,2.38
2023-02-06T21:06:22.169Z,2.78
2023-02-06T21:08:51.759Z,3.63
2023-02-06T21:11:19.397Z,5.47
2023-02-06T21:13:46.623Z,1.38
2023-02-06T21:16:14.075Z,3.33
2023-02-06T21:18:42.777Z,3.33
2023-02-06T21:21:12.668Z,3.75
2023-02-06T21:23:42.948Z,4.63
2023-02-06T21:26:17.314Z,3.40
2023-02-06T21:28:46.492Z,3.35
2023-02-06T21:31:23.086Z,4.40
2023-02-06T21:33:51.770Z,6.13
2023-02-06T21:36:21.306Z,1.65
2023-02-06T21:38:48.549Z,2.00
2023-02-06T21:41:18.558Z,3.05
2023-02-06T21:43:46.182Z,3.70
2023-02-06T21:46:13.912Z,4.38
2023-02-06T21:48:42.215Z,2.25
2023-02-06T21:51:10.237Z,2.60
2023-02-06T21:53:37.636Z,3.75
2023-02-06T21:56:07.842Z,4.32
2023-02-06T21:58:36.503Z,2.85
2023-02-06T22:01:08.534Z,4.15
2023-02-06T22:03:36.344Z,3.33
2023-02-06T22:06:08.775Z,1.30
2023-02-06T22:08:37.068Z,4.20
2023-02-06T22:11:28.449Z,3.05
2023-02-06T22:14:04.686Z,2.63
2023-02-06T22:16:32.493Z,1.38
2023-02-06T22:19:01.058Z,2.40
2023-02-06T22:21:29.896Z,3.65
2023-02-06T22:23:59.520Z,2.45
2023-02-06T22:26:27.908Z,3.88
2023-02-06T22:28:55.139Z,4.65
2023-02-06T22:31:24.681Z,6.85
2023-02-06T22:33:52.790Z,2.70
2023-02-06T22:36:22.447Z,2.75
2023-02-06T22:38:55.637Z,4.37
2023-02-06T22:41:22.837Z,3.75
2023-02-06T22:43:51.362Z,5.25
2023-02-06T22:46:30.549Z,2.75
2023-02-06T22:48:58.015Z,2.30
2023-02-06T22:51:25.909Z,5.22
2023-02-06T22:53:53.566Z,1.10
2023-02-06T22:56:37.051Z,3.10
2023-02-06T22:59:07.605Z,2.38
2023-02-06T23:01:48.116Z,3.60
2023-02-06T23:06:45.087Z,2.50
2023-02-06T23:09:21.308Z,2.85
2023-02-06T23:11:49.184Z,2.17
2023-02-06T23:14:18.348Z,4.40
2023-02-06T23:16:46.411Z,3.67
2023-02-06T23:19:14.958Z,2.88
2023-02-06T23:21:43.749Z,2.65
2023-02-06T23:24:12.025Z,3.55
2023-02-06T23:26:42.381Z,0.70
2023-02-06T23:29:15.909Z,2.72
2023-02-06T23:31:44.031Z,3.88
2023-02-06T23:34:11.677Z,4.10
2023-02-06T23:36:38.956Z,2.55
2023-02-06T23:39:06.643Z,1.65
2023-02-06T23:45:25.231Z,6.40
2023-02-06T23:47:52.751Z,3.22
2023-02-06T23:50:20.235Z,3.28
2023-02-06T23:52:47.640Z,4.40
2023-02-06T23:55:15.014Z,3.13
2023-02-06T23:57:42.388Z,3.10
